sensor_id;sensor_type;location;lat;lon;timestamp;temperature;humidity
59307;DHT22;47983;53.016;-2.260;2022-09-21T00:00:46;13.70;99.90
59307;DHT22;47983;53.016;-2.260;2022-09-21T00:03:14;14.20;99.90
59307;DHT22;47983;53.016;-2.260;2022-09-21T00:05:42;14.20;99.90
59307;DHT22;47983;53.016;-2.260;2022-09-21T00:08:09;14.20;99.90
59307;DHT22;47983;53.016;-2.260;2022-09-21T00:10:38;14.20;99.90
59307;DHT22;47983;53.016;-2.260;2022-09-21T00:13:05;14.20;99.90
59307;DHT22;47983;53.016;-2.260;2022-09-21T00:15:34;14.20;99.90
59307;DHT22;47983;53.016;-2.260;2022-09-21T00:18:01;14.20;99.90
59307;DHT22;47983;53.016;-2.260;2022-09-21T00:20:29;14.20;99.90
59307;DHT22;47983;53.016;-2.260;2022-09-21T00:22:57;14.20;99.90
59307;DHT22;47983;53.016;-2.260;2022-09-21T00:25:24;14.20;99.90
59307;DHT22;47983;53.016;-2.260;2022-09-21T00:27:52;14.20;99.90
59307;DHT22;47983;53.016;-2.260;2022-09-21T00:30:20;14.10;99.90
59307;DHT22;47983;53.016;-2.260;2022-09-21T00:32:48;14.10;99.90
59307;DHT22;47983;53.016;-2.260;2022-09-21T00:35:15;14.10;99.90
59307;DHT22;47983;53.016;-2.260;2022-09-21T00:37:42;14.10;99.90
59307;DHT22;47983;53.016;-2.260;2022-09-21T00:40:13;14.10;99.90
59307;DHT22;47983;53.016;-2.260;2022-09-21T00:42:41;14.10;99.90
59307;DHT22;47983;53.016;-2.260;2022-09-21T00:45:10;14.00;99.90
59307;DHT22;47983;53.016;-2.260;2022-09-21T00:47:47;14.10;99.90
59307;DHT22;47983;53.016;-2.260;2022-09-21T00:50:18;14.10;99.90
59307;DHT22;47983;53.016;-2.260;2022-09-21T00:52:47;14.00;99.90
59307;DHT22;47983;53.016;-2.260;2022-09-21T00:57:46;14.00;99.90
59307;DHT22;47983;53.016;-2.260;2022-09-21T01:00:15;14.00;99.90
59307;DHT22;47983;53.016;-2.260;2022-09-21T01:02:43;14.00;99.90
59307;DHT22;47983;53.016;-2.260;2022-09-21T01:05:11;14.00;99.90
59307;DHT22;47983;53.016;-2.260;2022-09-21T01:07:45;14.00;99.90
59307;DHT22;47983;53.016;-2.260;2022-09-21T01:10:16;13.90;99.90
59307;DHT22;47983;53.016;-2.260;2022-09-21T01:13:03;14.00;99.90
59307;DHT22;47983;53.016;-2.260;2022-09-21T01:15:47;13.90;99.90
59307;DHT22;47983;53.016;-2.260;2022-09-21T01:20:50;13.90;99.90
59307;DHT22;47983;53.016;-2.260;2022-09-21T01:23:26;13.90;99.90
59307;DHT22;47983;53.016;-2.260;2022-09-21T01:26:00;13.90;99.90
59307;DHT22;47983;53.016;-2.260;2022-09-21T01:31:00;13.80;99.90
59307;DHT22;47983;53.016;-2.260;2022-09-21T01:33:33;13.80;99.90
59307;DHT22;47983;53.016;-2.260;2022-09-21T01:36:04;13.80;99.90
59307;DHT22;47983;53.016;-2.260;2022-09-21T01:38:41;13.80;99.90
59307;DHT22;47983;53.016;-2.260;2022-09-21T01:41:11;13.80;99.90
59307;DHT22;47983;53.016;-2.260;2022-09-21T01:43:41;13.80;99.90
59307;DHT22;47983;53.016;-2.260;2022-09-21T01:46:10;13.80;99.90
59307;DHT22;47983;53.016;-2.260;2022-09-21T01:48:41;13.80;99.90
59307;DHT22;47983;53.016;-2.260;2022-09-21T01:51:10;13.70;99.90
59307;DHT22;47983;53.016;-2.260;2022-09-21T01:53:41;13.70;99.90
59307;DHT22;47983;53.016;-2.260;2022-09-21T01:56:11;13.70;99.90
59307;DHT22;47983;53.016;-2.260;2022-09-21T01:58:44;13.70;99.90
59307;DHT22;47983;53.016;-2.260;2022-09-21T02:01:14;13.60;99.90
59307;DHT22;47983;53.016;-2.260;2022-09-21T02:03:44;13.60;99.90
59307;DHT22;47983;53.016;-2.260;2022-09-21T02:06:14;13.50;99.90
59307;DHT22;47983;53.016;-2.260;2022-09-21T02:08:41;13.40;99.90
59307;DHT22;47983;53.016;-2.260;2022-09-21T02:11:09;13.30;99.90
59307;DHT22;47983;53.016;-2.260;2022-09-21T02:13:41;13.30;99.90
59307;DHT22;47983;53.016;-2.260;2022-09-21T02:21:22;13.00;99.90
59307;DHT22;47983;53.016;-2.260;2022-09-21T02:26:26;12.80;99.90
59307;DHT22;47983;53.016;-2.260;2022-09-21T02:29:09;12.70;99.90
59307;DHT22;47983;53.016;-2.260;2022-09-21T02:31:48;12.60;99.90
59307;DHT22;47983;53.016;-2.260;2022-09-21T02:34:23;12.50;99.90
59307;DHT22;47983;53.016;-2.260;2022-09-21T02:36:56;12.20;99.90
59307;DHT22;47983;53.016;-2.260;2022-09-21T02:42:00;12.50;99.90
59307;DHT22;47983;53.016;-2.260;2022-09-21T02:44:31;12.50;99.90
59307;DHT22;47983;53.016;-2.260;2022-09-21T02:47:23;12.50;99.90
59307;DHT22;47983;53.016;-2.260;2022-09-21T02:49:50;12.50;99.90
59307;DHT22;47983;53.016;-2.260;2022-09-21T02:52:21;12.50;99.90
59307;DHT22;47983;53.016;-2.260;2022-09-21T02:54:49;12.50;99.90
59307;DHT22;47983;53.016;-2.260;2022-09-21T02:57:19;12.50;99.90
59307;DHT22;47983;53.016;-2.260;2022-09-21T02:59:48;12.50;99.90
59307;DHT22;47983;53.016;-2.260;2022-09-21T03:02:16;12.50;99.90
59307;DHT22;47983;53.016;-2.260;2022-09-21T03:04:44;12.50;99.90
59307;DHT22;47983;53.016;-2.260;2022-09-21T03:07:14;12.50;99.90
59307;DHT22;47983;53.016;-2.260;2022-09-21T03:09:41;12.50;99.90
59307;DHT22;47983;53.016;-2.260;2022-09-21T03:12:09;12.60;99.90
59307;DHT22;47983;53.016;-2.260;2022-09-21T03:14:36;12.50;99.90
59307;DHT22;47983;53.016;-2.260;2022-09-21T03:17:03;12.50;99.90
59307;DHT22;47983;53.016;-2.260;2022-09-21T03:19:31;12.50;99.90
59307;DHT22;47983;53.016;-2.260;2022-09-21T03:21:58;12.60;99.90
59307;DHT22;47983;53.016;-2.260;2022-09-21T03:24:28;12.60;99.90
59307;DHT22;47983;53.016;-2.260;2022-09-21T03:27:17;12.60;99.90
59307;DHT22;47983;53.016;-2.260;2022-09-21T03:29:45;12.60;99.90
59307;DHT22;47983;53.016;-2.260;2022-09-21T03:32:13;12.60;99.90
59307;DHT22;47983;53.016;-2.260;2022-09-21T03:34:40;12.70;99.90
59307;DHT22;47983;53.016;-2.260;2022-09-21T03:37:08;12.70;99.90
59307;DHT22;47983;53.016;-2.260;2022-09-21T03:39:35;12.70;99.90
59307;DHT22;47983;53.016;-2.260;2022-09-21T03:42:03;12.70;99.90
59307;DHT22;47983;53.016;-2.260;2022-09-21T03:44:30;12.70;99.90
59307;DHT22;47983;53.016;-2.260;2022-09-21T03:46:58;12.70;99.90
59307;DHT22;47983;53.016;-2.260;2022-09-21T03:49:25;12.70;99.90
59307;DHT22;47983;53.016;-2.260;2022-09-21T03:51:52;12.70;99.90
59307;DHT22;47983;53.016;-2.260;2022-09-21T03:54:20;12.70;99.90
59307;DHT22;47983;53.016;-2.260;2022-09-21T03:56:47;12.60;99.90
59307;DHT22;47983;53.016;-2.260;2022-09-21T03:59:15;12.50;99.90
59307;DHT22;47983;53.016;-2.260;2022-09-21T04:01:42;12.50;99.90
59307;DHT22;47983;53.016;-2.260;2022-09-21T04:04:10;12.40;99.90
59307;DHT22;47983;53.016;-2.260;2022-09-21T04:06:37;12.40;99.90
59307;DHT22;47983;53.016;-2.260;2022-09-21T04:09:05;12.30;99.90
59307;DHT22;47983;53.016;-2.260;2022-09-21T04:11:32;12.30;99.90
59307;DHT22;47983;53.016;-2.260;2022-09-21T04:13:59;12.30;99.90
59307;DHT22;47983;53.016;-2.260;2022-09-21T04:16:27;12.20;99.90
59307;DHT22;47983;53.016;-2.260;2022-09-21T04:18:55;12.20;99.90
59307;DHT22;47983;53.016;-2.260;2022-09-21T04:21:22;12.10;99.90
59307;DHT22;47983;53.016;-2.260;2022-09-21T04:23:49;12.00;99.90
59307;DHT22;47983;53.016;-2.260;2022-09-21T04:26:27;12.00;99.90
59307;DHT22;47983;53.016;-2.260;2022-09-21T04:28:54;11.90;99.90
59307;DHT22;47983;53.016;-2.260;2022-09-21T04:31:22;11.80;99.90
59307;DHT22;47983;53.016;-2.260;2022-09-21T04:33:50;11.70;99.90
59307;DHT22;47983;53.016;-2.260;2022-09-21T04:36:18;11.70;99.90
59307;DHT22;47983;53.016;-2.260;2022-09-21T04:38:46;11.60;99.90
59307;DHT22;47983;53.016;-2.260;2022-09-21T04:41:14;11.50;99.90
59307;DHT22;47983;53.016;-2.260;2022-09-21T04:43:42;11.50;99.90
59307;DHT22;47983;53.016;-2.260;2022-09-21T04:46:13;11.40;99.90
59307;DHT22;47983;53.016;-2.260;2022-09-21T04:48:41;11.30;99.90
59307;DHT22;47983;53.016;-2.260;2022-09-21T04:51:09;11.30;99.90
59307;DHT22;47983;53.016;-2.260;2022-09-21T04:53:37;11.20;99.90
59307;DHT22;47983;53.016;-2.260;2022-09-21T04:56:05;11.10;99.90
59307;DHT22;47983;53.016;-2.260;2022-09-21T04:58:33;11.20;99.90
59307;DHT22;47983;53.016;-2.260;2022-09-21T05:01:00;11.10;99.90
59307;DHT22;47983;53.016;-2.260;2022-09-21T05:03:28;11.00;99.90
59307;DHT22;47983;53.016;-2.260;2022-09-21T05:05:55;11.00;99.90
59307;DHT22;47983;53.016;-2.260;2022-09-21T05:08:23;10.90;99.90
59307;DHT22;47983;53.016;-2.260;2022-09-21T05:11:11;10.80;99.90
59307;DHT22;47983;53.016;-2.260;2022-09-21T05:13:39;10.80;99.90
59307;DHT22;47983;53.016;-2.260;2022-09-21T05:16:06;10.70;99.90
59307;DHT22;47983;53.016;-2.260;2022-09-21T05:18:34;10.70;99.90
59307;DHT22;47983;53.016;-2.260;2022-09-21T05:21:02;10.60;99.90
59307;DHT22;47983;53.016;-2.260;2022-09-21T05:23:30;10.60;99.90
59307;DHT22;47983;53.016;-2.260;2022-09-21T05:25:58;10.60;99.90
59307;DHT22;47983;53.016;-2.260;2022-09-21T05:28:25;10.50;99.90
59307;DHT22;47983;53.016;-2.260;2022-09-21T05:30:57;10.50;99.90
59307;DHT22;47983;53.016;-2.260;2022-09-21T05:33:47;10.40;99.90
59307;DHT22;47983;53.016;-2.260;2022-09-21T05:39:02;10.30;99.90
59307;DHT22;47983;53.016;-2.260;2022-09-21T05:41:30;10.30;99.90
59307;DHT22;47983;53.016;-2.260;2022-09-21T05:43:57;10.20;99.90
59307;DHT22;47983;53.016;-2.260;2022-09-21T05:46:41;10.20;99.90
59307;DHT22;47983;53.016;-2.260;2022-09-21T05:49:43;10.20;99.90
59307;DHT22;47983;53.016;-2.260;2022-09-21T05:52:20;10.10;99.90
59307;DHT22;47983;53.016;-2.260;2022-09-21T06:05:00;9.90;99.90
59307;DHT22;47983;53.016;-2.260;2022-09-21T06:07:28;9.90;99.90
59307;DHT22;47983;53.016;-2.260;2022-09-21T06:09:56;9.90;99.90
59307;DHT22;47983;53.016;-2.260;2022-09-21T06:12:23;9.90;99.90
59307;DHT22;47983;53.016;-2.260;2022-09-21T06:14:50;9.80;99.90
59307;DHT22;47983;53.016;-2.260;2022-09-21T06:17:18;9.80;99.90
59307;DHT22;47983;53.016;-2.260;2022-09-21T06:19:45;9.80;99.90
59307;DHT22;47983;53.016;-2.260;2022-09-21T06:22:12;9.80;99.90
59307;DHT22;47983;53.016;-2.260;2022-09-21T06:24:40;9.80;99.90
59307;DHT22;47983;53.016;-2.260;2022-09-21T06:27:07;9.80;99.90
59307;DHT22;47983;53.016;-2.260;2022-09-21T06:29:34;11.00;99.90
59307;DHT22;47983;53.016;-2.260;2022-09-21T06:32:02;9.90;99.90
59307;DHT22;47983;53.016;-2.260;2022-09-21T06:34:30;9.90;99.90
59307;DHT22;47983;53.016;-2.260;2022-09-21T06:36:57;9.90;99.90
59307;DHT22;47983;53.016;-2.260;2022-09-21T06:39:25;9.90;99.90
59307;DHT22;47983;53.016;-2.260;2022-09-21T06:41:52;9.90;99.90
59307;DHT22;47983;53.016;-2.260;2022-09-21T06:44:21;10.00;99.90
59307;DHT22;47983;53.016;-2.260;2022-09-21T06:46:49;10.00;99.90
59307;DHT22;47983;53.016;-2.260;2022-09-21T06:49:16;10.00;99.90
59307;DHT22;47983;53.016;-2.260;2022-09-21T06:51:43;10.00;99.90
59307;DHT22;47983;53.016;-2.260;2022-09-21T06:54:11;10.00;99.90
59307;DHT22;47983;53.016;-2.260;2022-09-21T06:56:38;10.00;99.90
59307;DHT22;47983;53.016;-2.260;2022-09-21T06:59:06;10.10;99.90
59307;DHT22;47983;53.016;-2.260;2022-09-21T07:01:34;10.10;99.90
59307;DHT22;47983;53.016;-2.260;2022-09-21T07:04:02;10.10;99.90
59307;DHT22;47983;53.016;-2.260;2022-09-21T07:06:29;10.20;99.90
59307;DHT22;47983;53.016;-2.260;2022-09-21T07:08:57;10.20;99.90
59307;DHT22;47983;53.016;-2.260;2022-09-21T07:11:44;10.20;99.90
59307;DHT22;47983;53.016;-2.260;2022-09-21T07:14:12;10.30;99.90
59307;DHT22;47983;53.016;-2.260;2022-09-21T07:16:41;10.30;99.90
59307;DHT22;47983;53.016;-2.260;2022-09-21T07:19:09;10.40;99.90
59307;DHT22;47983;53.016;-2.260;2022-09-21T07:21:38;10.50;99.90
59307;DHT22;47983;53.016;-2.260;2022-09-21T07:24:05;10.50;99.90
59307;DHT22;47983;53.016;-2.260;2022-09-21T07:26:38;10.60;99.90
59307;DHT22;47983;53.016;-2.260;2022-09-21T07:29:05;10.60;99.90
59307;DHT22;47983;53.016;-2.260;2022-09-21T07:31:33;10.70;99.90
59307;DHT22;47983;53.016;-2.260;2022-09-21T07:34:01;10.80;99.90
59307;DHT22;47983;53.016;-2.260;2022-09-21T07:36:28;10.80;99.90
59307;DHT22;47983;53.016;-2.260;2022-09-21T07:38:56;10.90;99.90
59307;DHT22;47983;53.016;-2.260;2022-09-21T07:41:23;11.10;99.90
59307;DHT22;47983;53.016;-2.260;2022-09-21T07:43:51;11.20;99.90
59307;DHT22;47983;53.016;-2.260;2022-09-21T07:46:19;11.20;99.90
59307;DHT22;47983;53.016;-2.260;2022-09-21T07:48:46;11.50;99.90
59307;DHT22;47983;53.016;-2.260;2022-09-21T07:51:14;11.60;99.90
59307;DHT22;47983;53.016;-2.260;2022-09-21T07:53:42;11.70;99.90
59307;DHT22;47983;53.016;-2.260;2022-09-21T07:56:16;11.80;99.90
59307;DHT22;47983;53.016;-2.260;2022-09-21T07:58:43;11.90;99.90
59307;DHT22;47983;53.016;-2.260;2022-09-21T08:01:29;12.10;99.90
59307;DHT22;47983;53.016;-2.260;2022-09-21T08:03:57;12.20;99.90
59307;DHT22;47983;53.016;-2.260;2022-09-21T08:06:26;12.30;99.90
59307;DHT22;47983;53.016;-2.260;2022-09-21T08:08:53;12.40;99.90
59307;DHT22;47983;53.016;-2.260;2022-09-21T08:11:24;12.50;99.90
59307;DHT22;47983;53.016;-2.260;2022-09-21T08:13:53;12.60;99.90
59307;DHT22;47983;53.016;-2.260;2022-09-21T08:16:21;12.70;99.90
59307;DHT22;47983;53.016;-2.260;2022-09-21T08:18:49;12.80;99.90
59307;DHT22;47983;53.016;-2.260;2022-09-21T08:21:17;12.90;99.90
59307;DHT22;47983;53.016;-2.260;2022-09-21T08:23:46;13.00;99.90
59307;DHT22;47983;53.016;-2.260;2022-09-21T08:26:16;13.20;99.90
59307;DHT22;47983;53.016;-2.260;2022-09-21T08:28:45;13.30;99.90
59307;DHT22;47983;53.016;-2.260;2022-09-21T08:31:17;13.50;99.90
59307;DHT22;47983;53.016;-2.260;2022-09-21T08:33:46;13.60;99.90
59307;DHT22;47983;53.016;-2.260;2022-09-21T08:36:14;13.70;99.90
59307;DHT22;47983;53.016;-2.260;2022-09-21T08:38:41;13.80;99.90
59307;DHT22;47983;53.016;-2.260;2022-09-21T08:41:12;13.90;99.90
59307;DHT22;47983;53.016;-2.260;2022-09-21T08:43:41;14.00;99.90
59307;DHT22;47983;53.016;-2.260;2022-09-21T08:46:10;14.10;99.90
59307;DHT22;47983;53.016;-2.260;2022-09-21T08:48:43;14.20;99.90
59307;DHT22;47983;53.016;-2.260;2022-09-21T08:51:14;14.30;99.90
59307;DHT22;47983;53.016;-2.260;2022-09-21T08:53:44;14.30;99.90
59307;DHT22;47983;53.016;-2.260;2022-09-21T08:56:13;14.40;99.90
59307;DHT22;47983;53.016;-2.260;2022-09-21T08:58:41;14.40;99.90
59307;DHT22;47983;53.016;-2.260;2022-09-21T09:09:58;14.70;99.90
59307;DHT22;47983;53.016;-2.260;2022-09-21T09:12:02;14.70;99.90
59307;DHT22;47983;53.016;-2.260;2022-09-21T09:22:09;14.80;99.90
59307;DHT22;47983;53.016;-2.260;2022-09-21T09:24:48;14.80;99.90
59307;DHT22;47983;53.016;-2.260;2022-09-21T09:38:10;15.10;99.90
59307;DHT22;47983;53.016;-2.260;2022-09-21T09:51:25;15.70;99.90
59307;DHT22;47983;53.016;-2.260;2022-09-21T09:53:52;15.90;99.90
59307;DHT22;47983;53.016;-2.260;2022-09-21T09:56:23;16.00;99.90
59307;DHT22;47983;53.016;-2.260;2022-09-21T09:58:53;16.20;99.90
59307;DHT22;47983;53.016;-2.260;2022-09-21T10:04:13;16.40;99.90
59307;DHT22;47983;53.016;-2.260;2022-09-21T10:06:40;16.10;99.90
59307;DHT22;47983;53.016;-2.260;2022-09-21T10:09:27;16.60;99.90
59307;DHT22;47983;53.016;-2.260;2022-09-21T10:11:57;16.70;99.90
59307;DHT22;47983;53.016;-2.260;2022-09-21T10:14:26;16.80;99.90
59307;DHT22;47983;53.016;-2.260;2022-09-21T10:16:54;17.00;99.90
59307;DHT22;47983;53.016;-2.260;2022-09-21T10:19:23;17.00;99.90
59307;DHT22;47983;53.016;-2.260;2022-09-21T10:21:58;17.00;99.90
59307;DHT22;47983;53.016;-2.260;2022-09-21T10:27:19;17.10;99.90
59307;DHT22;47983;53.016;-2.260;2022-09-21T10:29:44;17.10;99.90
59307;DHT22;47983;53.016;-2.260;2022-09-21T10:34:59;17.30;99.90
59307;DHT22;47983;53.016;-2.260;2022-09-21T10:37:28;17.40;99.90
59307;DHT22;47983;53.016;-2.260;2022-09-21T10:39:56;17.40;99.90
59307;DHT22;47983;53.016;-2.260;2022-09-21T10:42:23;17.40;99.90
59307;DHT22;47983;53.016;-2.260;2022-09-21T10:44:52;17.50;99.90
59307;DHT22;47983;53.016;-2.260;2022-09-21T10:49:59;17.70;99.90
59307;DHT22;47983;53.016;-2.260;2022-09-21T10:52:32;17.60;99.90
59307;DHT22;47983;53.016;-2.260;2022-09-21T10:55:00;17.70;99.90
59307;DHT22;47983;53.016;-2.260;2022-09-21T10:57:27;17.70;99.90
59307;DHT22;47983;53.016;-2.260;2022-09-21T10:59:56;17.70;99.90
59307;DHT22;47983;53.016;-2.260;2022-09-21T11:02:25;17.70;99.90
59307;DHT22;47983;53.016;-2.260;2022-09-21T11:04:54;17.80;99.90
59307;DHT22;47983;53.016;-2.260;2022-09-21T11:07:33;17.80;99.90
59307;DHT22;47983;53.016;-2.260;2022-09-21T11:10:09;17.90;99.90
59307;DHT22;47983;53.016;-2.260;2022-09-21T11:12:42;17.90;99.90
59307;DHT22;47983;53.016;-2.260;2022-09-21T11:17:47;18.20;99.90
59307;DHT22;47983;53.016;-2.260;2022-09-21T11:20:18;18.20;99.90
59307;DHT22;47983;53.016;-2.260;2022-09-21T11:23:02;18.30;99.90
59307;DHT22;47983;53.016;-2.260;2022-09-21T11:25:48;18.40;99.90
59307;DHT22;47983;53.016;-2.260;2022-09-21T11:30:53;18.40;99.90
59307;DHT22;47983;53.016;-2.260;2022-09-21T11:36:09;18.40;99.90
59307;DHT22;47983;53.016;-2.260;2022-09-21T11:46:15;18.70;99.90
59307;DHT22;47983;53.016;-2.260;2022-09-21T11:54:28;18.90;99.90
59307;DHT22;47983;53.016;-2.260;2022-09-21T11:57:03;19.00;99.90
59307;DHT22;47983;53.016;-2.260;2022-09-21T12:10:19;19.00;99.90
59307;DHT22;47983;53.016;-2.260;2022-09-21T12:12:56;19.10;99.90
59307;DHT22;47983;53.016;-2.260;2022-09-21T12:15:32;19.20;99.90
59307;DHT22;47983;53.016;-2.260;2022-09-21T12:20:49;19.70;99.90
59307;DHT22;47983;53.016;-2.260;2022-09-21T12:23:23;19.90;99.90
59307;DHT22;47983;53.016;-2.260;2022-09-21T12:25:53;20.20;99.90
59307;DHT22;47983;53.016;-2.260;2022-09-21T12:28:24;20.60;99.90
59307;DHT22;47983;53.016;-2.260;2022-09-21T12:30:56;20.90;98.50
59307;DHT22;47983;53.016;-2.260;2022-09-21T12:36:07;21.50;97.70
59307;DHT22;47983;53.016;-2.260;2022-09-21T12:38:41;21.60;97.50
59307;DHT22;47983;53.016;-2.260;2022-09-21T12:41:15;21.60;96.70
59307;DHT22;47983;53.016;-2.260;2022-09-21T12:43:58;21.60;95.70
59307;DHT22;47983;53.016;-2.260;2022-09-21T12:48:58;21.10;96.20
59307;DHT22;47983;53.016;-2.260;2022-09-21T12:51:28;21.00;96.30
59307;DHT22;47983;53.016;-2.260;2022-09-21T12:53:59;20.80;96.40
59307;DHT22;47983;53.016;-2.260;2022-09-21T12:56:43;20.80;97.20
59307;DHT22;47983;53.016;-2.260;2022-09-21T12:59:25;20.90;97.00
59307;DHT22;47983;53.016;-2.260;2022-09-21T13:09:49;21.20;95.60
59307;DHT22;47983;53.016;-2.260;2022-09-21T13:12:24;21.40;96.40
59307;DHT22;47983;53.016;-2.260;2022-09-21T13:14:57;21.70;95.80
59307;DHT22;47983;53.016;-2.260;2022-09-21T13:17:26;22.00;94.80
59307;DHT22;47983;53.016;-2.260;2022-09-21T13:19:57;22.10;93.70
59307;DHT22;47983;53.016;-2.260;2022-09-21T13:22:27;22.00;93.80
59307;DHT22;47983;53.016;-2.260;2022-09-21T13:24:58;22.00;93.30
59307;DHT22;47983;53.016;-2.260;2022-09-21T13:33:28;22.00;93.30
59307;DHT22;47983;53.016;-2.260;2022-09-21T13:38:26;22.10;91.90
59307;DHT22;47983;53.016;-2.260;2022-09-21T13:40:59;22.00;92.00
59307;DHT22;47983;53.016;-2.260;2022-09-21T13:51:49;21.70;91.50
59307;DHT22;47983;53.016;-2.260;2022-09-21T13:54:18;21.60;91.70
59307;DHT22;47983;53.016;-2.260;2022-09-21T13:59:35;21.40;91.90
59307;DHT22;47983;53.016;-2.260;2022-09-21T14:02:08;21.40;92.00
59307;DHT22;47983;53.016;-2.260;2022-09-21T14:04:46;21.30;91.90
59307;DHT22;47983;53.016;-2.260;2022-09-21T14:07:15;21.30;92.20
59307;DHT22;47983;53.016;-2.260;2022-09-21T14:09:56;21.40;91.90
59307;DHT22;47983;53.016;-2.260;2022-09-21T14:12:25;21.40;91.90
59307;DHT22;47983;53.016;-2.260;2022-09-21T14:15:40;21.40;91.30
59307;DHT22;47983;53.016;-2.260;2022-09-21T14:17:42;21.40;90.80
59307;DHT22;47983;53.016;-2.260;2022-09-21T14:23:10;21.40;90.70
59307;DHT22;47983;53.016;-2.260;2022-09-21T14:25:50;21.40;89.30
59307;DHT22;47983;53.016;-2.260;2022-09-21T14:28:24;21.40;89.20
59307;DHT22;47983;53.016;-2.260;2022-09-21T14:30:55;21.40;88.00
59307;DHT22;47983;53.016;-2.260;2022-09-21T14:33:43;21.30;88.50
59307;DHT22;47983;53.016;-2.260;2022-09-21T14:36:14;21.20;89.70
59307;DHT22;47983;53.016;-2.260;2022-09-21T14:38:50;21.00;90.00
59307;DHT22;47983;53.016;-2.260;2022-09-21T14:41:21;20.90;90.00
59307;DHT22;47983;53.016;-2.260;2022-09-21T14:43:51;20.70;90.40
59307;DHT22;47983;53.016;-2.260;2022-09-21T14:46:23;20.60;90.60
59307;DHT22;47983;53.016;-2.260;2022-09-21T15:01:53;20.10;90.80
59307;DHT22;47983;53.016;-2.260;2022-09-21T15:12:39;20.00;91.70
59307;DHT22;47983;53.016;-2.260;2022-09-21T15:17:53;20.10;91.50
59307;DHT22;47983;53.016;-2.260;2022-09-21T15:20:26;20.10;91.30
59307;DHT22;47983;53.016;-2.260;2022-09-21T15:22:55;20.20;91.60
59307;DHT22;47983;53.016;-2.260;2022-09-21T15:25:25;20.20;91.30
59307;DHT22;47983;53.016;-2.260;2022-09-21T15:27:53;20.10;91.10
59307;DHT22;47983;53.016;-2.260;2022-09-21T15:30:25;20.10;90.80
59307;DHT22;47983;53.016;-2.260;2022-09-21T15:33:00;20.10;91.00
59307;DHT22;47983;53.016;-2.260;2022-09-21T15:35:31;20.00;91.00
59307;DHT22;47983;53.016;-2.260;2022-09-21T15:37:59;19.90;91.00
59307;DHT22;47983;53.016;-2.260;2022-09-21T15:40:29;19.80;91.00
59307;DHT22;47983;53.016;-2.260;2022-09-21T15:43:00;19.60;91.10
59307;DHT22;47983;53.016;-2.260;2022-09-21T15:48:12;19.50;91.40
59307;DHT22;47983;53.016;-2.260;2022-09-21T15:50:40;19.30;91.40
59307;DHT22;47983;53.016;-2.260;2022-09-21T15:53:27;19.30;91.80
59307;DHT22;47983;53.016;-2.260;2022-09-21T15:55:57;19.30;92.00
59307;DHT22;47983;53.016;-2.260;2022-09-21T16:01:02;19.30;92.00
59307;DHT22;47983;53.016;-2.260;2022-09-21T16:03:31;19.30;91.90
59307;DHT22;47983;53.016;-2.260;2022-09-21T16:05:58;19.30;92.10
59307;DHT22;47983;53.016;-2.260;2022-09-21T16:08:43;19.40;92.30
59307;DHT22;47983;53.016;-2.260;2022-09-21T16:14:12;19.40;92.30
59307;DHT22;47983;53.016;-2.260;2022-09-21T16:19:41;19.30;92.60
59307;DHT22;47983;53.016;-2.260;2022-09-21T16:22:12;19.30;92.70
59307;DHT22;47983;53.016;-2.260;2022-09-21T16:24:53;19.30;92.80
59307;DHT22;47983;53.016;-2.260;2022-09-21T16:27:25;19.20;92.90
59307;DHT22;47983;53.016;-2.260;2022-09-21T16:29:53;19.20;93.10
59307;DHT22;47983;53.016;-2.260;2022-09-21T16:34:52;19.10;93.20
59307;DHT22;47983;53.016;-2.260;2022-09-21T16:37:35;19.00;93.20
59307;DHT22;47983;53.016;-2.260;2022-09-21T16:40:03;19.00;93.20
59307;DHT22;47983;53.016;-2.260;2022-09-21T16:42:31;18.90;93.30
59307;DHT22;47983;53.016;-2.260;2022-09-21T16:44:59;18.80;93.50
59307;DHT22;47983;53.016;-2.260;2022-09-21T16:47:27;18.70;93.60
59307;DHT22;47983;53.016;-2.260;2022-09-21T16:49:56;18.60;93.50
59307;DHT22;47983;53.016;-2.260;2022-09-21T16:52:26;18.60;93.80
59307;DHT22;47983;53.016;-2.260;2022-09-21T16:54:54;18.50;93.80
59307;DHT22;47983;53.016;-2.260;2022-09-21T16:57:23;18.50;93.90
59307;DHT22;47983;53.016;-2.260;2022-09-21T16:59:50;18.40;94.10
59307;DHT22;47983;53.016;-2.260;2022-09-21T17:02:18;18.40;94.10
59307;DHT22;47983;53.016;-2.260;2022-09-21T17:04:45;18.30;94.20
59307;DHT22;47983;53.016;-2.260;2022-09-21T17:07:14;18.30;94.30
59307;DHT22;47983;53.016;-2.260;2022-09-21T17:09:43;18.30;94.20
59307;DHT22;47983;53.016;-2.260;2022-09-21T17:12:13;18.20;94.20
59307;DHT22;47983;53.016;-2.260;2022-09-21T17:14:41;18.20;94.20
59307;DHT22;47983;53.016;-2.260;2022-09-21T17:19:44;18.10;94.20
59307;DHT22;47983;53.016;-2.260;2022-09-21T17:22:12;18.10;94.20
59307;DHT22;47983;53.016;-2.260;2022-09-21T17:24:46;18.00;94.30
59307;DHT22;47983;53.016;-2.260;2022-09-21T17:27:19;18.00;94.50
59307;DHT22;47983;53.016;-2.260;2022-09-21T17:29:47;17.90;94.60
59307;DHT22;47983;53.016;-2.260;2022-09-21T17:32:17;17.90;94.70
59307;DHT22;47983;53.016;-2.260;2022-09-21T17:34:52;17.90;94.90
59307;DHT22;47983;53.016;-2.260;2022-09-21T17:37:20;17.80;94.90
59307;DHT22;47983;53.016;-2.260;2022-09-21T17:39:48;17.80;95.00
59307;DHT22;47983;53.016;-2.260;2022-09-21T17:42:16;17.70;95.00
59307;DHT22;47983;53.016;-2.260;2022-09-21T17:44:53;17.70;95.30
59307;DHT22;47983;53.016;-2.260;2022-09-21T17:47:25;17.60;95.10
59307;DHT22;47983;53.016;-2.260;2022-09-21T17:50:01;17.50;95.10
59307;DHT22;47983;53.016;-2.260;2022-09-21T17:52:34;17.40;95.30
59307;DHT22;47983;53.016;-2.260;2022-09-21T17:55:20;17.40;95.50
59307;DHT22;47983;53.016;-2.260;2022-09-21T18:00:19;17.20;95.80
59307;DHT22;47983;53.016;-2.260;2022-09-21T18:02:48;17.20;95.90
59307;DHT22;47983;53.016;-2.260;2022-09-21T18:05:25;17.20;96.00
59307;DHT22;47983;53.016;-2.260;2022-09-21T18:07:53;17.10;96.20
59307;DHT22;47983;53.016;-2.260;2022-09-21T18:10:21;17.10;96.40
59307;DHT22;47983;53.016;-2.260;2022-09-21T18:13:53;17.00;96.50
59307;DHT22;47983;53.016;-2.260;2022-09-21T18:15:59;17.00;96.50
59307;DHT22;47983;53.016;-2.260;2022-09-21T18:18:36;16.90;96.60
59307;DHT22;47983;53.016;-2.260;2022-09-21T18:21:07;16.80;96.80
59307;DHT22;47983;53.016;-2.260;2022-09-21T18:23:38;16.80;96.80
59307;DHT22;47983;53.016;-2.260;2022-09-21T18:26:08;16.70;96.80
59307;DHT22;47983;53.016;-2.260;2022-09-21T18:36:28;16.30;97.20
59307;DHT22;47983;53.016;-2.260;2022-09-21T18:39:01;16.20;97.30
59307;DHT22;47983;53.016;-2.260;2022-09-21T18:41:33;16.10;97.40
59307;DHT22;47983;53.016;-2.260;2022-09-21T18:44:06;15.90;97.50
59307;DHT22;47983;53.016;-2.260;2022-09-21T18:54:20;15.40;98.30
59307;DHT22;47983;53.016;-2.260;2022-09-21T18:56:48;15.30;98.50
59307;DHT22;47983;53.016;-2.260;2022-09-21T18:59:15;15.30;98.70
59307;DHT22;47983;53.016;-2.260;2022-09-21T19:01:44;15.20;98.80
59307;DHT22;47983;53.016;-2.260;2022-09-21T19:04:13;15.10;99.00
59307;DHT22;47983;53.016;-2.260;2022-09-21T19:06:51;15.00;99.10